Gowrie, Iowa
Current Conditions -  °F | °C
As of 11:55 PM on Saturday 22 Nov 2014 (Local Time) from KFOD Reporting Station
Overcast Overcast  
Wind Chill: 52°   Ceiling: 1000
Heat Index: 52°   Visibility: 10mi
Dew Point: 50°   Wind: 17mph
Humidity: 94%   Direction: 190°S
Pressure: 29.58"   Gusts: 25mph
Location:  42.28°N, 94.29°W
Report Text: KFOD 230555Z AUTO 19015G22KT 10SM OVC010 11/10 A2958 RMK AO1 10120 20080 57007
Loading
Personal Weather Stations






























Interactive Weather Map New forecast layout! Learn more

10-Day Weather Forecast

Advertisements
Track Severe Weather on mobile